createdAt,value
2018-12-27T00:00:31.412Z,31.63
2018-12-27T00:03:36.661Z,30.73
2018-12-27T00:06:42.021Z,32.10
2018-12-27T00:09:47.296Z,28.23
2018-12-27T00:12:52.756Z,34.30
2018-12-27T00:15:58.032Z,28.67
2018-12-27T00:19:03.446Z,31.13
2018-12-27T00:22:08.720Z,26.53
2018-12-27T00:25:14.239Z,36.50
2018-12-27T00:28:19.519Z,29.67
2018-12-27T00:31:25.082Z,24.87
2018-12-27T00:34:30.571Z,29.13
2018-12-27T00:37:36.233Z,27.77
2018-12-27T00:40:41.712Z,27.90
2018-12-27T00:43:47.637Z,29.73
2018-12-27T00:46:53.117Z,28.30
2018-12-27T00:49:58.689Z,30.80
2018-12-27T00:53:04.168Z,27.57
2018-12-27T00:56:09.835Z,29.97
2018-12-27T00:59:15.311Z,28.53
2018-12-27T01:02:20.938Z,29.20
2018-12-27T01:05:26.418Z,33.90
2018-12-27T01:08:32.031Z,30.50
2018-12-27T01:11:37.512Z,25.33
2018-12-27T01:14:43.131Z,24.93
2018-12-27T01:17:48.618Z,25.93
2018-12-27T01:20:54.231Z,27.30
2018-12-27T01:24:02.687Z,24.53
2018-12-27T01:27:08.249Z,21.97
2018-12-27T01:30:13.823Z,21.93
2018-12-27T01:33:19.495Z,27.97
2018-12-27T01:36:24.976Z,26.27
2018-12-27T01:39:30.597Z,23.33
2018-12-27T01:42:36.076Z,23.03
2018-12-27T01:45:41.695Z,19.07
2018-12-27T01:48:47.177Z,23.13
2018-12-27T01:51:52.792Z,23.87
2018-12-27T01:54:58.272Z,25.23
2018-12-27T01:58:03.892Z,21.80
2018-12-27T02:01:09.373Z,28.47
2018-12-27T02:04:15.012Z,18.33
2018-12-27T02:07:20.499Z,20.50
2018-12-27T02:10:26.091Z,16.83
2018-12-27T02:13:31.572Z,17.40
2018-12-27T02:16:37.188Z,19.43
2018-12-27T02:19:42.668Z,22.37
2018-12-27T02:22:48.395Z,25.07
2018-12-27T02:25:53.874Z,18.10
2018-12-27T02:28:59.490Z,19.50
2018-12-27T02:32:05.014Z,20.30
2018-12-27T02:35:10.590Z,19.83
2018-12-27T02:38:16.075Z,22.23
2018-12-27T02:41:21.637Z,21.23
2018-12-27T02:44:27.117Z,21.13
2018-12-27T02:47:32.889Z,21.33
2018-12-27T02:50:38.367Z,21.27
2018-12-27T02:53:43.988Z,17.87
2018-12-27T02:56:49.515Z,19.13
2018-12-27T02:59:55.188Z,18.93
2018-12-27T03:03:00.669Z,20.60
2018-12-27T03:06:06.387Z,19.13
2018-12-27T03:09:11.886Z,17.17
2018-12-27T03:12:17.492Z,18.60
2018-12-27T03:15:22.988Z,19.07
2018-12-27T03:18:28.592Z,20.80
2018-12-27T03:21:34.074Z,18.10
2018-12-27T03:24:39.793Z,17.07
2018-12-27T03:27:45.274Z,18.53
2018-12-27T03:30:50.899Z,16.90
2018-12-27T03:33:56.376Z,20.07
2018-12-27T03:37:01.983Z,20.43
2018-12-27T03:40:07.464Z,20.77
2018-12-27T03:43:13.188Z,20.93
2018-12-27T03:46:18.665Z,19.20
2018-12-27T03:49:24.284Z,21.20
2018-12-27T03:52:30.257Z,19.90
2018-12-27T03:55:35.821Z,16.83
2018-12-27T03:58:41.307Z,17.97
2018-12-27T04:01:47.299Z,16.27
2018-12-27T04:04:52.780Z,17.90
2018-12-27T04:07:58.503Z,15.63
2018-12-27T04:11:04.011Z,17.93
2018-12-27T04:14:09.601Z,16.83
2018-12-27T04:17:14.928Z,17.27
2018-12-27T04:20:20.391Z,16.90
2018-12-27T04:23:26.776Z,15.23
2018-12-27T04:26:32.128Z,17.33
2018-12-27T04:29:37.426Z,15.77
2018-12-27T04:32:44.302Z,15.00
2018-12-27T04:35:51.085Z,16.23
2018-12-27T04:38:57.070Z,16.70
2018-12-27T04:42:02.880Z,15.33
2018-12-27T04:45:08.377Z,15.60
2018-12-27T04:48:13.657Z,17.20
2018-12-27T04:51:19.025Z,17.47
2018-12-27T04:54:24.289Z,15.10
2018-12-27T04:57:29.756Z,15.30
2018-12-27T05:00:35.034Z,16.23
2018-12-27T05:03:40.459Z,16.47
2018-12-27T05:06:45.723Z,17.17
2018-12-27T05:09:51.210Z,18.57
2018-12-27T05:12:56.557Z,19.63
2018-12-27T05:16:01.924Z,18.60
2018-12-27T05:19:07.198Z,15.93
2018-12-27T05:22:12.607Z,13.47
2018-12-27T05:25:17.893Z,15.07
2018-12-27T05:28:23.316Z,14.50
2018-12-27T05:31:28.592Z,14.00
2018-12-27T05:34:33.987Z,12.27
2018-12-27T05:37:39.263Z,10.10
2018-12-27T05:40:44.676Z,9.93
2018-12-27T05:43:49.948Z,11.93
2018-12-27T05:46:55.308Z,12.93
2018-12-27T05:50:00.586Z,11.23
2018-12-27T05:53:06.055Z,10.07
2018-12-27T05:56:11.325Z,8.40
2018-12-27T05:59:16.743Z,7.90
2018-12-27T06:02:22.018Z,7.10
2018-12-27T06:05:27.447Z,6.30
2018-12-27T06:08:32.715Z,7.90
2018-12-27T06:11:38.222Z,6.03
2018-12-27T06:14:43.491Z,8.07
2018-12-27T06:17:48.915Z,7.53
2018-12-27T06:20:54.189Z,10.13
2018-12-27T06:23:59.539Z,8.33
2018-12-27T06:27:04.815Z,9.13
2018-12-27T06:30:10.189Z,10.23
2018-12-27T06:33:15.470Z,9.70
2018-12-27T06:36:20.977Z,9.40
2018-12-27T06:39:26.256Z,9.30
2018-12-27T06:42:31.672Z,9.00
2018-12-27T06:45:36.949Z,9.87
2018-12-27T06:48:42.355Z,8.90
2018-12-27T06:51:47.636Z,11.63
2018-12-27T06:54:53.049Z,10.20
2018-12-27T06:57:58.319Z,8.97
2018-12-27T07:01:03.736Z,11.63
2018-12-27T07:04:09.012Z,12.67
2018-12-27T07:07:14.424Z,12.70
2018-12-27T07:10:19.700Z,13.23
2018-12-27T07:13:25.421Z,15.20
2018-12-27T07:16:30.763Z,17.73
2018-12-27T07:19:36.213Z,18.03
2018-12-27T07:22:41.488Z,20.63
2018-12-27T07:25:46.903Z,21.37
2018-12-27T07:28:52.256Z,24.17
2018-12-27T07:31:57.693Z,30.70
2018-12-27T07:35:02.975Z,32.00
2018-12-27T07:38:08.493Z,29.20
2018-12-27T07:41:13.769Z,30.30
2018-12-27T07:44:19.182Z,23.13
2018-12-27T07:47:24.512Z,25.27
2018-12-27T07:50:29.969Z,25.00
2018-12-27T07:53:35.292Z,24.70
2018-12-27T07:56:40.782Z,22.00
2018-12-27T07:59:46.121Z,26.40
2018-12-27T08:02:51.758Z,30.17
2018-12-27T08:05:57.041Z,31.20
2018-12-27T08:09:02.450Z,40.43
2018-12-27T08:12:07.728Z,34.00
2018-12-27T08:15:13.309Z,32.87
2018-12-27T08:18:18.587Z,37.97
2018-12-27T08:21:24.028Z,38.80
2018-12-27T08:24:29.349Z,35.53
2018-12-27T08:27:34.817Z,40.60
2018-12-27T08:30:40.092Z,40.87
2018-12-27T08:33:45.506Z,36.53
2018-12-27T08:36:50.788Z,39.73
2018-12-27T08:39:56.196Z,32.77
2018-12-27T08:43:01.481Z,42.80
2018-12-27T08:46:06.929Z,32.17
2018-12-27T08:49:12.206Z,39.30
2018-12-27T08:52:17.600Z,32.00
2018-12-27T08:55:22.878Z,34.10
2018-12-27T08:58:28.365Z,34.00
2018-12-27T09:01:33.640Z,30.03
2018-12-27T09:04:39.054Z,27.80
2018-12-27T09:07:44.328Z,28.33
2018-12-27T09:10:49.746Z,26.53
2018-12-27T09:13:55.024Z,27.57
2018-12-27T09:17:00.640Z,26.17
2018-12-27T09:20:09.302Z,34.73
2018-12-27T09:23:14.705Z,28.37
2018-12-27T09:26:20.308Z,33.80
2018-12-27T09:29:25.665Z,38.63
2018-12-27T09:32:30.941Z,34.33
2018-12-27T09:35:36.751Z,23.07
2018-12-27T09:38:42.025Z,24.60
2018-12-27T09:41:47.497Z,22.47
2018-12-27T09:44:52.842Z,20.70
2018-12-27T09:47:58.337Z,24.13
2018-12-27T09:51:03.641Z,24.53
2018-12-27T09:54:09.072Z,24.83
2018-12-27T09:57:14.422Z,21.23
2018-12-27T10:00:19.865Z,24.60
2018-12-27T10:03:25.147Z,23.13
2018-12-27T10:06:30.562Z,27.17
2018-12-27T10:09:35.839Z,18.27
2018-12-27T10:12:41.245Z,17.50
2018-12-27T10:15:46.536Z,21.60
2018-12-27T10:18:51.933Z,13.77
2018-12-27T10:21:57.264Z,17.03
2018-12-27T10:25:02.734Z,15.57
2018-12-27T10:28:08.005Z,14.50
2018-12-27T10:31:13.492Z,16.40
2018-12-27T10:34:18.833Z,21.87
2018-12-27T10:37:24.214Z,19.50
2018-12-27T10:40:29.490Z,15.23
2018-12-27T10:43:34.996Z,25.37
2018-12-27T10:46:40.278Z,19.67
2018-12-27T10:49:46.003Z,26.43
2018-12-27T10:52:51.318Z,27.97
2018-12-27T10:55:56.799Z,22.43
2018-12-27T10:59:02.073Z,21.80
2018-12-27T11:02:07.477Z,25.83
2018-12-27T11:05:12.759Z,24.27
2018-12-27T11:08:18.159Z,26.43
2018-12-27T11:11:23.440Z,18.73
2018-12-27T11:14:29.113Z,23.87
2018-12-27T11:17:34.465Z,14.63
2018-12-27T11:20:40.054Z,21.50
2018-12-27T11:23:45.379Z,17.10
2018-12-27T11:26:50.854Z,13.47
2018-12-27T11:29:56.126Z,13.73
2018-12-27T11:33:01.548Z,18.27
2018-12-27T11:36:06.818Z,16.73
2018-12-27T11:39:12.182Z,24.83
2018-12-27T11:42:17.460Z,18.23
2018-12-27T11:45:22.914Z,20.60
2018-12-27T11:48:28.188Z,21.53
2018-12-27T11:51:33.607Z,20.97
2018-12-27T11:54:38.883Z,19.43
2018-12-27T11:57:44.397Z,20.93
2018-12-27T12:00:49.673Z,21.87
2018-12-27T12:03:55.084Z,26.73
2018-12-27T12:07:00.360Z,25.13
2018-12-27T12:10:08.234Z,22.80
2018-12-27T12:13:13.514Z,30.13
2018-12-27T12:16:19.026Z,23.40
2018-12-27T12:19:24.306Z,25.47
2018-12-27T12:22:29.817Z,24.80
2018-12-27T12:25:35.168Z,28.93
2018-12-27T12:28:40.867Z,17.73
2018-12-27T12:31:46.145Z,24.90
2018-12-27T12:34:51.606Z,26.27
2018-12-27T12:37:57.492Z,24.83
2018-12-27T12:41:02.909Z,21.57
2018-12-27T12:44:08.189Z,25.10
2018-12-27T12:47:13.598Z,19.73
2018-12-27T12:50:18.875Z,23.33
2018-12-27T12:53:24.281Z,26.07
2018-12-27T12:56:29.613Z,24.67
2018-12-27T12:59:35.085Z,25.47
2018-12-27T13:02:40.359Z,28.73
2018-12-27T13:05:45.775Z,22.63
2018-12-27T13:08:51.051Z,26.00
2018-12-27T13:11:56.459Z,19.03
2018-12-27T13:15:01.733Z,23.63
2018-12-27T13:18:07.149Z,25.80
2018-12-27T13:21:12.428Z,25.93
2018-12-27T13:24:17.850Z,27.67
2018-12-27T13:27:23.163Z,25.57
2018-12-27T13:30:28.984Z,27.70
2018-12-27T13:33:34.513Z,22.17
2018-12-27T13:36:42.620Z,27.00
2018-12-27T13:39:47.901Z,26.80
2018-12-27T13:42:53.343Z,26.20
2018-12-27T13:45:58.619Z,21.97
2018-12-27T13:49:04.078Z,20.27
2018-12-27T13:52:09.358Z,22.17
2018-12-27T13:55:15.993Z,24.47
2018-12-27T13:58:21.272Z,28.03
2018-12-27T14:01:26.680Z,28.90
2018-12-27T14:04:31.969Z,24.53
2018-12-27T14:07:37.628Z,23.40
2018-12-27T14:10:42.901Z,24.37
2018-12-27T14:13:48.369Z,23.67
2018-12-27T14:16:53.649Z,25.90
2018-12-27T14:19:59.054Z,29.40
2018-12-27T14:23:04.336Z,28.73
2018-12-27T14:26:10.105Z,27.17
2018-12-27T14:29:15.376Z,27.27
2018-12-27T14:32:20.846Z,30.73
2018-12-27T14:35:26.274Z,31.83
2018-12-27T14:38:31.737Z,35.00
2018-12-27T14:41:37.021Z,28.30
2018-12-27T14:44:42.380Z,30.07
2018-12-27T14:47:47.723Z,33.37
2018-12-27T14:50:53.126Z,51.00
2018-12-27T14:53:58.404Z,39.87
2018-12-27T14:57:03.807Z,43.60
2018-12-27T15:00:11.997Z,47.67
2018-12-27T15:03:17.464Z,50.53
2018-12-27T15:06:22.759Z,45.03
2018-12-27T15:09:28.119Z,44.33
2018-12-27T15:12:33.477Z,50.27
2018-12-27T15:15:38.955Z,52.30
2018-12-27T15:18:44.243Z,51.80
2018-12-27T15:21:49.638Z,44.20
2018-12-27T15:24:54.916Z,51.67
2018-12-27T15:28:00.735Z,61.13
2018-12-27T15:31:06.587Z,51.80
2018-12-27T15:34:12.038Z,45.27
2018-12-27T15:37:17.312Z,51.40
2018-12-27T15:40:22.733Z,56.33
2018-12-27T15:43:28.008Z,51.13
2018-12-27T15:46:33.418Z,47.07
2018-12-27T15:49:38.701Z,44.27
2018-12-27T15:52:44.121Z,45.83
2018-12-27T15:55:49.399Z,48.70
2018-12-27T15:58:54.910Z,42.97
2018-12-27T16:02:00.228Z,39.27
2018-12-27T16:05:05.799Z,43.80
2018-12-27T16:08:11.090Z,44.73
2018-12-27T16:11:16.432Z,47.77
2018-12-27T16:14:21.715Z,44.27
2018-12-27T16:17:27.171Z,40.87
2018-12-27T16:20:32.504Z,47.27
2018-12-27T16:23:37.963Z,40.97
2018-12-27T16:26:43.245Z,39.40
2018-12-27T16:29:48.854Z,37.27
2018-12-27T16:32:54.138Z,35.70
2018-12-27T16:35:59.544Z,36.17
2018-12-27T16:39:06.368Z,37.17
2018-12-27T16:42:11.804Z,42.63
2018-12-27T16:45:17.081Z,39.83
2018-12-27T16:48:24.272Z,39.80
2018-12-27T16:51:29.557Z,42.27
2018-12-27T16:54:34.918Z,42.37
2018-12-27T16:57:40.284Z,39.83
2018-12-27T17:00:45.801Z,43.97
2018-12-27T17:03:51.120Z,40.53
2018-12-27T17:06:56.571Z,40.67
2018-12-27T17:10:01.853Z,35.93
2018-12-27T17:13:07.369Z,40.20
2018-12-27T17:16:12.970Z,34.60
2018-12-27T17:19:18.366Z,34.20
2018-12-27T17:22:23.646Z,31.60
2018-12-27T17:25:29.159Z,28.67
2018-12-27T17:28:34.437Z,25.87
2018-12-27T17:31:39.948Z,32.50
2018-12-27T17:34:45.228Z,33.47
2018-12-27T17:37:50.635Z,31.13
2018-12-27T17:40:55.911Z,27.23
2018-12-27T17:44:01.431Z,28.50
2018-12-27T17:47:06.728Z,28.30
2018-12-27T17:50:12.116Z,24.53
2018-12-27T17:53:17.442Z,19.83
2018-12-27T17:56:22.909Z,20.23
2018-12-27T17:59:28.188Z,23.10
2018-12-27T18:02:34.414Z,23.40
2018-12-27T18:05:39.753Z,24.37
2018-12-27T18:08:45.141Z,23.17
2018-12-27T18:11:50.422Z,27.70
2018-12-27T18:15:02.450Z,26.47
2018-12-27T18:18:07.797Z,24.53
2018-12-27T18:21:13.161Z,27.83
2018-12-27T18:24:18.444Z,28.47
2018-12-27T18:27:23.834Z,31.27
2018-12-27T18:30:29.111Z,30.37
2018-12-27T18:33:34.616Z,33.97
2018-12-27T18:36:39.900Z,35.57
2018-12-27T18:39:45.312Z,28.63
2018-12-27T18:42:50.592Z,28.67
2018-12-27T18:45:56.410Z,28.40
2018-12-27T18:49:01.691Z,27.20
2018-12-27T18:52:07.099Z,29.87
2018-12-27T18:55:12.445Z,31.30
2018-12-27T18:58:17.892Z,30.60
2018-12-27T19:01:23.171Z,32.87
2018-12-27T19:04:28.540Z,35.90
2018-12-27T19:07:33.807Z,33.93
2018-12-27T19:10:39.204Z,31.97
2018-12-27T19:13:44.771Z,30.23
2018-12-27T19:16:50.165Z,27.10
2018-12-27T19:19:55.445Z,27.87
2018-12-27T19:23:08.392Z,33.47
2018-12-27T19:26:13.669Z,37.80
2018-12-27T19:29:19.127Z,37.07
2018-12-27T19:32:24.418Z,39.73
2018-12-27T19:35:33.012Z,38.13
2018-12-27T19:38:38.286Z,35.63
2018-12-27T19:41:43.681Z,35.20
2018-12-27T19:44:48.963Z,32.97
2018-12-27T19:47:54.987Z,33.97
2018-12-27T19:51:00.285Z,32.37
2018-12-27T19:54:05.773Z,31.60
2018-12-27T19:57:11.073Z,32.27
2018-12-27T20:00:16.743Z,30.27
2018-12-27T20:03:22.088Z,33.43
2018-12-27T20:06:27.480Z,34.27
2018-12-27T20:09:33.056Z,36.57
2018-12-27T20:12:38.449Z,38.57
2018-12-27T20:15:43.724Z,42.37
2018-12-27T20:18:49.173Z,30.60
2018-12-27T20:21:54.453Z,32.60
2018-12-27T20:25:00.152Z,32.47
2018-12-27T20:28:05.533Z,33.73
2018-12-27T20:31:11.131Z,35.60
2018-12-27T20:34:16.411Z,32.30
2018-12-27T20:37:21.886Z,32.23
2018-12-27T20:40:27.229Z,29.50
2018-12-27T20:43:32.616Z,33.17
2018-12-27T20:46:37.899Z,34.40
2018-12-27T20:49:43.263Z,30.57
2018-12-27T20:52:48.810Z,26.70
2018-12-27T20:55:54.200Z,31.40
2018-12-27T20:58:59.479Z,29.30
2018-12-27T21:02:05.195Z,32.77
2018-12-27T21:05:10.477Z,35.40
2018-12-27T21:08:15.846Z,43.73
2018-12-27T21:11:21.126Z,48.63
2018-12-27T21:14:26.578Z,49.87
2018-12-27T21:17:31.863Z,44.27
2018-12-27T21:20:37.279Z,42.37
2018-12-27T21:23:42.599Z,43.93
2018-12-27T21:26:48.054Z,46.57
2018-12-27T21:29:53.411Z,45.90
2018-12-27T21:32:58.847Z,44.17
2018-12-27T21:36:04.130Z,45.33
2018-12-27T21:39:09.606Z,44.80
2018-12-27T21:42:14.910Z,41.70
2018-12-27T21:45:20.339Z,41.77
2018-12-27T21:48:25.618Z,46.77
2018-12-27T21:51:31.280Z,46.13
2018-12-27T21:54:36.567Z,40.80
2018-12-27T21:57:42.021Z,46.60
2018-12-27T22:00:47.303Z,45.37
2018-12-27T22:03:52.809Z,52.30
2018-12-27T22:06:58.087Z,49.90
2018-12-27T22:10:03.702Z,54.73
2018-12-27T22:13:08.993Z,56.47
2018-12-27T22:16:14.594Z,50.57
2018-12-27T22:19:19.875Z,46.27
2018-12-27T22:22:25.283Z,46.37
2018-12-27T22:25:30.609Z,48.07
2018-12-27T22:28:36.016Z,43.70
2018-12-27T22:31:41.294Z,46.70
2018-12-27T22:34:46.772Z,37.70
2018-12-27T22:37:52.045Z,41.13
2018-12-27T22:40:57.556Z,37.57
2018-12-27T22:44:02.829Z,39.37
2018-12-27T22:47:08.500Z,36.47
2018-12-27T22:50:13.781Z,40.83
2018-12-27T22:53:19.239Z,37.63
2018-12-27T22:56:24.665Z,33.73
2018-12-27T22:59:30.088Z,33.97
2018-12-27T23:02:35.367Z,37.10
2018-12-27T23:05:40.726Z,37.40
2018-12-27T23:08:46.008Z,37.00
2018-12-27T23:11:51.413Z,38.20
2018-12-27T23:14:56.684Z,32.27
2018-12-27T23:18:02.101Z,38.67
2018-12-27T23:21:07.373Z,33.07
2018-12-27T23:24:12.788Z,37.70
2018-12-27T23:27:18.078Z,41.57
2018-12-27T23:30:23.482Z,38.20
2018-12-27T23:33:28.757Z,36.70
2018-12-27T23:36:34.116Z,41.33
2018-12-27T23:39:39.388Z,41.07
2018-12-27T23:42:44.961Z,40.47
2018-12-27T23:45:50.232Z,42.07
2018-12-27T23:48:55.655Z,40.10
2018-12-27T23:52:00.930Z,39.70
2018-12-27T23:55:06.531Z,39.00
2018-12-27T23:58:11.809Z,41.47
